Time;durP1;ratioP1;P1;durP2;ratioP2;P2;SDS_P1;SDS_P2;PMS_P1;PMS_P2;Temp;Humidity;BMP_temperature;BMP_pressure;BME280_temperature;BME280_humidity;BME280_pressure;Samples;Min_cycle;Max_cycle;Signal;HPM_P1;HPM_P2
2023/02/04 00:02:20;;;;;;;4.25;1.85;;;4.70;99.90;;;;;;5031354;28;20022;-39
2023/02/04 00:04:45;;;;;;;6.55;1.83;;;4.70;99.90;;;;;;5046326;28;20471;-39
2023/02/04 00:07:11;;;;;;;7.20;1.80;;;4.70;99.90;;;;;;5052214;28;20104;-37
2023/02/04 00:09:36;;;;;;;5.88;2.00;;;4.60;99.90;;;;;;5052199;28;20047;-36
2023/02/04 00:12:02;;;;;;;3.55;1.85;;;4.50;99.90;;;;;;5052247;28;20274;-36
2023/02/04 00:14:28;;;;;;;7.38;1.80;;;4.50;99.90;;;;;;5052097;28;20029;-37
2023/02/04 00:16:53;;;;;;;2.90;1.90;;;4.40;99.90;;;;;;5051926;28;20478;-38
2023/02/04 00:19:19;;;;;;;4.50;1.83;;;4.30;99.90;;;;;;5052171;28;20028;-38
2023/02/04 00:21:44;;;;;;;3.50;1.40;;;4.20;99.90;;;;;;5051958;28;20020;-38
2023/02/04 00:24:10;;;;;;;3.60;1.40;;;4.20;99.90;;;;;;5051911;28;20056;-38
2023/02/04 00:26:36;;;;;;;4.78;2.40;;;4.10;99.90;;;;;;5051352;28;20025;-38
2023/02/04 00:29:01;;;;;;;7.20;1.55;;;4.00;99.90;;;;;;5051773;28;20025;-38
2023/02/04 00:31:27;;;;;;;2.88;1.52;;;4.00;99.90;;;;;;5051669;28;20044;-38
2023/02/04 00:33:52;;;;;;;2.72;1.73;;;3.90;99.90;;;;;;5051767;28;20494;-38
2023/02/04 00:36:18;;;;;;;2.67;1.60;;;3.90;99.90;;;;;;5051000;28;20017;-38
2023/02/04 00:38:43;;;;;;;3.97;1.55;;;3.90;99.90;;;;;;5051622;28;20063;-38
2023/02/04 00:41:09;;;;;;;3.95;2.13;;;3.80;99.90;;;;;;5051447;28;20036;-38
2023/02/04 00:43:34;;;;;;;4.53;2.08;;;3.70;99.90;;;;;;5051490;28;20075;-38
2023/02/04 00:46:00;;;;;;;4.40;2.15;;;3.70;99.90;;;;;;5051275;28;20075;-38
2023/02/04 00:48:25;;;;;;;5.35;2.10;;;3.60;99.90;;;;;;5051222;28;20028;-38
2023/02/04 00:50:52;;;;;;;3.83;2.00;;;3.60;99.90;;;;;;5051364;28;20433;-38
2023/02/04 00:53:18;;;;;;;6.25;2.35;;;3.60;99.90;;;;;;5051404;28;20063;-38
2023/02/04 00:55:44;;;;;;;3.95;2.00;;;3.60;99.90;;;;;;5050859;28;20051;-38
2023/02/04 00:58:09;;;;;;;5.30;1.80;;;3.50;99.90;;;;;;5050886;28;20103;-38
2023/02/04 01:00:34;;;;;;;5.88;1.83;;;3.50;99.90;;;;;;5051325;28;20033;-38
2023/02/04 01:03:00;;;;;;;3.15;1.63;;;3.40;99.90;;;;;;5050970;28;20102;-38
2023/02/04 01:05:26;;;;;;;4.75;1.63;;;3.40;99.90;;;;;;5050245;28;20631;-38
2023/02/04 01:07:51;;;;;;;4.18;1.83;;;3.40;99.90;;;;;;5050744;28;20476;-38
2023/02/04 01:10:17;;;;;;;4.13;1.80;;;3.30;99.90;;;;;;5049651;28;20035;-38
2023/02/04 01:12:43;;;;;;;5.88;2.40;;;3.30;99.90;;;;;;5051021;28;20079;-38
2023/02/04 01:15:09;;;;;;;5.47;2.55;;;3.20;99.90;;;;;;5050667;28;20021;-38
2023/02/04 01:17:34;;;;;;;3.88;2.08;;;3.20;99.90;;;;;;5050913;28;20028;-38
2023/02/04 01:20:00;;;;;;;2.00;1.67;;;3.20;99.90;;;;;;5050830;28;20032;-38
2023/02/04 01:22:25;;;;;;;10.10;2.30;;;3.30;99.90;;;;;;5051036;28;20047;-38
2023/02/04 01:24:51;;;;;;;4.35;1.83;;;3.20;99.90;;;;;;5050462;28;20394;-38
2023/02/04 01:27:17;;;;;;;3.20;1.85;;;3.30;99.90;;;;;;5050754;28;20047;-38
2023/02/04 01:29:42;;;;;;;4.90;1.67;;;3.30;99.90;;;;;;5050813;28;20028;-38
2023/02/04 01:32:08;;;;;;;4.90;1.77;;;3.30;99.90;;;;;;5050821;28;20033;-38
2023/02/04 01:34:33;;;;;;;2.65;1.50;;;3.40;99.90;;;;;;5050252;28;20505;-38
2023/02/04 01:36:59;;;;;;;5.00;1.50;;;3.40;99.90;;;;;;5050603;28;20082;-38
2023/02/04 01:39:24;;;;;;;3.38;1.50;;;3.50;99.90;;;;;;5050903;28;20021;-38
2023/02/04 01:41:50;;;;;;;5.57;2.20;;;3.50;99.90;;;;;;5050835;28;20074;-38
2023/02/04 01:44:15;;;;;;;2.40;1.92;;;3.50;99.90;;;;;;5050756;28;20132;-38
2023/02/04 01:46:41;;;;;;;3.05;1.88;;;3.50;99.90;;;;;;5049947;28;20031;-38
2023/02/04 01:49:08;;;;;;;2.50;1.52;;;3.50;99.90;;;;;;5050459;28;20021;-38
2023/02/04 01:51:35;;;;;;;3.50;2.00;;;3.40;99.90;;;;;;5050472;28;20025;-38
2023/02/04 01:54:01;;;;;;;4.07;2.10;;;3.40;99.90;;;;;;5049986;28;20060;-38
2023/02/04 01:56:29;;;;;;;5.93;2.17;;;3.30;99.90;;;;;;5049467;28;20072;-38
2023/02/04 01:58:56;;;;;;;2.85;2.10;;;3.30;99.90;;;;;;5050015;28;20108;-38
2023/02/04 02:01:43;;;;;;;5.28;1.88;;;3.20;99.90;;;;;;5049997;28;20061;-38
2023/02/04 02:04:15;;;;;;;8.50;2.38;;;3.20;99.90;;;;;;5049663;28;20095;-38
2023/02/04 02:06:49;;;;;;;3.90;2.00;;;3.20;99.90;;;;;;5041725;28;20099;-38
2023/02/04 02:09:15;;;;;;;3.45;2.10;;;3.20;99.90;;;;;;5047726;28;20060;-38
2023/02/04 02:11:40;;;;;;;3.85;2.00;;;3.20;99.90;;;;;;5048244;28;20063;-38
2023/02/04 02:14:06;;;;;;;6.40;2.33;;;3.20;99.90;;;;;;5049691;28;20033;-38
2023/02/04 02:16:32;;;;;;;7.20;2.38;;;3.20;99.90;;;;;;5049473;28;20025;-38
2023/02/04 02:18:58;;;;;;;5.65;2.55;;;3.10;99.90;;;;;;5049554;28;20031;-39
2023/02/04 02:21:37;;;;;;;5.47;1.98;;;3.10;99.90;;;;;;5049602;28;20368;-38
2023/02/04 02:24:24;;;;;;;4.38;2.20;;;3.10;99.90;;;;;;5049490;28;20052;-38
2023/02/04 02:26:51;;;;;;;2.28;1.98;;;3.10;99.90;;;;;;5049185;28;20021;-38
2023/02/04 02:29:16;;;;;;;2.97;2.47;;;3.10;99.90;;;;;;5049698;28;20432;-38
2023/02/04 02:31:42;;;;;;;5.50;2.22;;;3.00;99.90;;;;;;5049718;28;20033;-38
2023/02/04 02:34:07;;;;;;;4.75;2.63;;;3.00;99.90;;;;;;5049459;28;20107;-42
2023/02/04 02:36:33;;;;;;;4.00;2.22;;;2.90;99.90;;;;;;5048977;28;20479;-39
2023/02/04 02:38:58;;;;;;;4.82;2.40;;;2.90;99.90;;;;;;5049671;28;20021;-38
2023/02/04 02:41:24;;;;;;;6.38;2.38;;;2.80;99.90;;;;;;5048323;28;20470;-38
2023/02/04 02:43:50;;;;;;;4.60;2.35;;;2.80;99.90;;;;;;5049672;28;20028;-38
2023/02/04 02:46:15;;;;;;;5.93;2.10;;;2.80;99.90;;;;;;5049361;28;20031;-38
2023/02/04 02:48:41;;;;;;;4.47;2.15;;;2.70;99.90;;;;;;5049812;28;20057;-38
2023/02/04 02:51:06;;;;;;;2.88;2.10;;;2.70;99.90;;;;;;5049539;28;20116;-38
2023/02/04 02:53:32;;;;;;;4.80;2.08;;;2.60;99.90;;;;;;5050093;28;20107;-38
2023/02/04 02:55:57;;;;;;;5.13;2.20;;;2.60;99.90;;;;;;5049067;28;20025;-37
2023/02/04 02:58:35;;;;;;;6.13;2.45;;;2.60;99.90;;;;;;5048856;28;20126;-37
2023/02/04 03:01:03;;;;;;;5.35;2.17;;;2.60;99.90;;;;;;5049495;28;20012;-37
2023/02/04 03:03:42;;;;;;;5.93;2.65;;;2.50;99.90;;;;;;5049328;28;20110;-37
2023/02/04 03:06:24;;;;;;;2.38;2.05;;;2.50;99.90;;;;;;5048859;28;20075;-38
2023/02/04 03:08:54;;;;;;;3.03;2.00;;;2.50;99.90;;;;;;5049629;28;20497;-38
2023/02/04 03:11:19;;;;;;;2.85;2.13;;;2.50;99.90;;;;;;5049430;28;20024;-38
2023/02/04 03:13:45;;;;;;;2.47;1.80;;;2.50;99.90;;;;;;5049658;28;20028;-38
2023/02/04 03:16:11;;;;;;;6.53;2.40;;;2.50;99.90;;;;;;5048774;28;20057;-38
2023/02/04 03:18:39;;;;;;;4.18;2.30;;;2.50;99.90;;;;;;5049266;28;20048;-38
2023/02/04 03:21:06;;;;;;;4.35;2.40;;;2.40;99.90;;;;;;5050265;28;20048;-38
2023/02/04 03:23:33;;;;;;;4.97;2.13;;;2.50;99.90;;;;;;5053716;28;20043;-38
2023/02/04 03:26:00;;;;;;;2.90;2.28;;;2.40;99.90;;;;;;5052650;28;20021;-38
2023/02/04 03:28:25;;;;;;;4.95;3.05;;;2.40;99.90;;;;;;5053093;28;20475;-38
2023/02/04 03:30:54;;;;;;;4.15;2.38;;;2.40;99.90;;;;;;5053156;28;20033;-38
2023/02/04 03:33:25;;;;;;;4.22;2.58;;;2.40;99.90;;;;;;5052768;28;20100;-38
2023/02/04 03:35:51;;;;;;;2.97;2.58;;;2.30;99.90;;;;;;5051907;28;20017;-38
2023/02/04 03:38:17;;;;;;;6.60;2.35;;;2.30;99.90;;;;;;5051493;28;20025;-38
2023/02/04 03:40:43;;;;;;;5.72;2.17;;;2.30;99.90;;;;;;5051577;28;20021;-38
2023/02/04 03:43:09;;;;;;;6.40;2.67;;;2.20;99.90;;;;;;5052714;28;20021;-38
2023/02/04 03:45:34;;;;;;;3.67;1.98;;;2.20;99.90;;;;;;5052342;28;20120;-38
2023/02/04 03:48:00;;;;;;;4.40;2.35;;;2.20;99.90;;;;;;5053355;28;20056;-38
2023/02/04 03:50:25;;;;;;;5.82;2.83;;;2.20;99.90;;;;;;5053002;28;20035;-38
2023/02/04 03:52:52;;;;;;;4.07;2.38;;;2.10;99.90;;;;;;5051705;28;20058;-38
2023/02/04 03:55:18;;;;;;;3.72;2.22;;;2.10;99.90;;;;;;5052450;28;20021;-38
2023/02/04 03:57:44;;;;;;;4.68;2.42;;;2.10;99.90;;;;;;5052479;28;20033;-38
2023/02/04 04:00:10;;;;;;;4.38;2.28;;;2.20;99.90;;;;;;5052763;28;20028;-36
2023/02/04 04:02:36;;;;;;;7.30;3.03;;;2.20;99.90;;;;;;5052218;28;20017;-38
2023/02/04 04:05:01;;;;;;;3.47;2.45;;;2.20;99.90;;;;;;5051434;28;20082;-39
2023/02/04 04:07:27;;;;;;;5.97;2.50;;;2.30;99.90;;;;;;5052455;28;20090;-39
2023/02/04 04:09:52;;;;;;;4.45;2.50;;;2.30;99.90;;;;;;5052382;28;20036;-39
2023/02/04 04:12:18;;;;;;;4.13;2.45;;;2.30;99.90;;;;;;5052110;28;20033;-39
2023/02/04 04:14:43;;;;;;;4.40;2.55;;;2.40;99.90;;;;;;5051580;28;20032;-39
2023/02/04 04:17:09;;;;;;;4.97;2.67;;;2.40;99.90;;;;;;5051950;28;20029;-39
2023/02/04 04:19:34;;;;;;;2.97;2.38;;;2.50;99.90;;;;;;5051943;28;20021;-39
2023/02/04 04:22:00;;;;;;;4.97;2.53;;;2.50;99.90;;;;;;5052016;28;20039;-39
2023/02/04 04:24:26;;;;;;;8.85;2.90;;;2.50;99.90;;;;;;5052137;28;20079;-39
2023/02/04 04:26:51;;;;;;;3.80;2.63;;;2.50;99.90;;;;;;5051670;28;20028;-39
2023/02/04 04:29:17;;;;;;;5.03;2.53;;;2.60;99.90;;;;;;5051869;28;20048;-39
2023/02/04 04:31:43;;;;;;;3.55;2.40;;;2.60;99.90;;;;;;5050631;28;20126;-39
2023/02/04 04:34:09;;;;;;;5.97;2.70;;;2.60;99.90;;;;;;5051407;28;20043;-39
2023/02/04 04:36:35;;;;;;;6.75;2.65;;;2.70;99.90;;;;;;5050819;28;20021;-39
2023/02/04 04:39:00;;;;;;;4.78;2.47;;;2.60;99.90;;;;;;5051387;28;20502;-39
2023/02/04 04:41:26;;;;;;;6.78;2.30;;;2.60;99.90;;;;;;5051460;28;20425;-39
2023/02/04 04:43:51;;;;;;;4.60;2.85;;;2.60;99.90;;;;;;5051602;28;20449;-39
2023/02/04 04:46:17;;;;;;;5.20;2.80;;;2.60;99.90;;;;;;5051089;28;20079;-39
2023/02/04 04:48:42;;;;;;;3.28;2.47;;;2.60;99.90;;;;;;5050135;28;20024;-39
2023/02/04 04:51:08;;;;;;;5.45;3.33;;;2.70;99.90;;;;;;5051258;28;20036;-39
2023/02/04 04:53:33;;;;;;;4.47;2.72;;;2.70;99.90;;;;;;5051161;28;20029;-39
2023/02/04 04:55:59;;;;;;;4.13;2.67;;;2.70;99.90;;;;;;5049367;28;20025;-39
2023/02/04 04:58:24;;;;;;;6.38;2.58;;;2.80;99.90;;;;;;5051474;28;20671;-39
2023/02/04 05:00:50;;;;;;;7.55;3.00;;;2.70;99.90;;;;;;5051310;28;20025;-39
2023/02/04 05:03:15;;;;;;;7.18;3.10;;;2.70;99.90;;;;;;5051069;28;20056;-39
2023/02/04 05:05:41;;;;;;;6.63;2.53;;;2.80;99.90;;;;;;5050733;28;20025;-36
2023/02/04 05:08:12;;;;;;;3.38;2.50;;;2.80;99.90;;;;;;5051097;28;20024;-36
2023/02/04 05:10:41;;;;;;;5.47;3.13;;;2.80;99.90;;;;;;5051380;28;20024;-39
2023/02/04 05:13:07;;;;;;;3.92;2.88;;;2.80;99.90;;;;;;5050991;28;20461;-37
2023/02/04 05:15:33;;;;;;;3.80;2.50;;;2.80;99.90;;;;;;5050348;28;20071;-37
2023/02/04 05:17:58;;;;;;;4.90;3.22;;;2.80;99.90;;;;;;5050826;28;20382;-37
2023/02/04 05:20:24;;;;;;;6.20;2.90;;;2.90;99.90;;;;;;5049519;28;20070;-37
2023/02/04 05:22:50;;;;;;;6.07;3.00;;;2.90;99.90;;;;;;5050894;28;20021;-37
2023/02/04 05:25:16;;;;;;;8.57;2.85;;;2.90;99.90;;;;;;5050379;28;20021;-37
2023/02/04 05:27:42;;;;;;;4.13;2.38;;;2.90;99.90;;;;;;5049631;28;20025;-38
2023/02/04 05:30:12;;;;;;;6.35;3.05;;;2.90;99.90;;;;;;5050832;28;20025;-38
2023/02/04 05:32:38;;;;;;;4.35;2.90;;;2.90;99.90;;;;;;5049747;28;20390;-38
2023/02/04 05:35:05;;;;;;;6.03;3.20;;;2.90;99.90;;;;;;5050128;28;20032;-39
2023/02/04 05:37:30;;;;;;;8.13;3.67;;;2.80;99.90;;;;;;5048466;28;20035;-36
2023/02/04 05:39:56;;;;;;;4.25;2.95;;;2.80;99.90;;;;;;5048187;28;20024;-38
2023/02/04 05:42:21;;;;;;;3.00;2.55;;;2.80;99.90;;;;;;5050047;28;20104;-37
2023/02/04 05:44:47;;;;;;;5.38;2.63;;;2.80;99.90;;;;;;5048480;28;20024;-38
2023/02/04 05:47:12;;;;;;;4.65;2.30;;;2.80;99.90;;;;;;5050486;28;20028;-38
2023/02/04 05:49:38;;;;;;;4.45;2.63;;;2.80;99.90;;;;;;5050225;28;20017;-38
2023/02/04 05:52:04;;;;;;;4.90;2.83;;;2.80;99.90;;;;;;5050191;28;20028;-38
2023/02/04 05:54:29;;;;;;;4.93;2.85;;;2.70;99.90;;;;;;5049983;28;20028;-38
2023/02/04 05:56:55;;;;;;;7.65;2.90;;;2.70;99.90;;;;;;5049935;28;20032;-38
2023/02/04 05:59:20;;;;;;;9.20;2.75;;;2.60;99.90;;;;;;5050101;28;20017;-38
2023/02/04 06:01:46;;;;;;;4.80;3.33;;;2.60;99.90;;;;;;5048839;28;20486;-38
2023/02/04 06:04:11;;;;;;;4.03;2.60;;;2.60;99.90;;;;;;5048938;28;20028;-38
2023/02/04 06:06:37;;;;;;;4.30;2.78;;;2.50;99.90;;;;;;5049600;28;20021;-38
2023/02/04 06:09:03;;;;;;;8.80;3.15;;;2.50;99.90;;;;;;5049976;28;20493;-38
2023/02/04 06:11:28;;;;;;;4.57;2.92;;;2.50;99.90;;;;;;5048497;28;20094;-38
2023/02/04 06:13:54;;;;;;;3.40;2.80;;;2.50;99.90;;;;;;5049915;28;20025;-38
2023/02/04 06:16:19;;;;;;;7.82;3.28;;;2.40;99.90;;;;;;5049295;28;20391;-38
2023/02/04 06:18:45;;;;;;;4.28;2.95;;;2.40;99.90;;;;;;5049801;28;20071;-38
2023/02/04 06:21:10;;;;;;;4.25;2.80;;;2.40;99.90;;;;;;5049665;28;20159;-38
2023/02/04 06:23:36;;;;;;;4.30;2.72;;;2.40;99.90;;;;;;5050309;28;20116;-38
2023/02/04 06:26:02;;;;;;;6.97;3.33;;;2.40;99.90;;;;;;5049256;28;20505;-38
2023/02/04 06:28:27;;;;;;;5.65;3.08;;;2.40;99.90;;;;;;5049669;28;20544;-38
2023/02/04 06:30:53;;;;;;;6.68;3.65;;;2.30;99.90;;;;;;5049754;28;20025;-38
2023/02/04 06:33:20;;;;;;;4.18;3.15;;;2.30;99.90;;;;;;5049513;28;20071;-38
2023/02/04 06:35:45;;;;;;;6.50;3.65;;;2.30;99.90;;;;;;5049096;28;20111;-38
2023/02/04 06:38:11;;;;;;;4.93;3.00;;;2.30;99.90;;;;;;5049500;28;20109;-38
2023/02/04 06:40:37;;;;;;;5.18;3.22;;;2.30;99.90;;;;;;5049584;28;20371;-38
2023/02/04 06:43:02;;;;;;;5.50;3.15;;;2.30;99.90;;;;;;5049656;28;20324;-38
2023/02/04 06:45:28;;;;;;;6.90;3.55;;;2.20;99.90;;;;;;5047677;28;20059;-38
2023/02/04 06:47:53;;;;;;;4.18;3.20;;;2.20;99.90;;;;;;5049411;28;20064;-38
2023/02/04 06:50:19;;;;;;;4.18;3.15;;;2.20;99.90;;;;;;5048097;28;20028;-38
2023/02/04 06:52:45;;;;;;;5.47;3.55;;;2.20;99.90;;;;;;5049937;28;20040;-38
2023/02/04 06:55:12;;;;;;;5.18;3.00;;;2.20;99.90;;;;;;5050760;28;20025;-38
2023/02/04 06:57:37;;;;;;;6.38;3.67;;;2.20;99.90;;;;;;5053604;28;20013;-38
2023/02/04 07:00:04;;;;;;;4.07;3.20;;;2.20;99.90;;;;;;5052295;28;20444;-38
2023/02/04 07:02:29;;;;;;;5.47;3.67;;;2.20;99.90;;;;;;5053481;28;20044;-38
2023/02/04 07:04:55;;;;;;;4.88;3.30;;;2.10;99.90;;;;;;5052900;28;20024;-38
2023/02/04 07:07:20;;;;;;;8.02;3.55;;;2.10;99.90;;;;;;5053374;28;20067;-38
2023/02/04 07:09:46;;;;;;;5.13;3.35;;;2.10;99.90;;;;;;5053386;28;20074;-37
2023/02/04 07:12:11;;;;;;;6.57;3.60;;;2.10;99.90;;;;;;5051861;28;20401;-38
2023/02/04 07:14:37;;;;;;;7.45;3.65;;;2.00;99.90;;;;;;5052589;28;20033;-38
2023/02/04 07:17:03;;;;;;;5.35;3.50;;;2.00;99.90;;;;;;5053416;28;20036;-38
2023/02/04 07:19:28;;;;;;;6.50;3.83;;;2.00;99.90;;;;;;5053150;28;20021;-38
2023/02/04 07:21:55;;;;;;;5.38;3.15;;;2.00;99.90;;;;;;5052958;28;20390;-38
2023/02/04 07:24:21;;;;;;;6.03;4.07;;;2.00;99.90;;;;;;5052895;28;20588;-38
2023/02/04 07:26:47;;;;;;;6.35;4.32;;;2.00;99.90;;;;;;5051261;28;20039;-38
2023/02/04 07:29:12;;;;;;;6.15;4.07;;;2.00;99.90;;;;;;5051800;28;20060;-38
2023/02/04 07:31:38;;;;;;;6.57;3.90;;;2.00;99.90;;;;;;5052763;28;20100;-38
2023/02/04 07:34:03;;;;;;;8.32;3.65;;;2.00;99.90;;;;;;5052670;28;20075;-38
2023/02/04 07:36:29;;;;;;;7.15;3.95;;;2.00;99.90;;;;;;5052105;28;20032;-37
2023/02/04 07:38:54;;;;;;;10.40;3.83;;;2.00;99.90;;;;;;5052823;28;20029;-37
2023/02/04 07:41:20;;;;;;;5.72;3.80;;;2.00;99.90;;;;;;5052855;28;20025;-37
2023/02/04 07:43:46;;;;;;;5.97;3.95;;;2.00;99.90;;;;;;5052708;28;20021;-37
2023/02/04 07:46:12;;;;;;;7.32;3.50;;;2.10;99.90;;;;;;5052152;28;20522;-38
2023/02/04 07:48:38;;;;;;;6.72;3.83;;;2.10;99.90;;;;;;5052815;28;20025;-38
2023/02/04 07:51:03;;;;;;;6.60;3.75;;;2.10;99.90;;;;;;5051792;28;20394;-38
2023/02/04 07:53:29;;;;;;;5.20;3.70;;;2.10;99.90;;;;;;5052879;28;20025;-38
2023/02/04 07:55:54;;;;;;;6.45;4.15;;;2.10;99.90;;;;;;5051729;28;20029;-37
2023/02/04 07:58:21;;;;;;;5.03;3.88;;;2.20;99.90;;;;;;5051785;28;20021;-38
2023/02/04 08:00:47;;;;;;;9.10;4.78;;;2.10;99.90;;;;;;5052095;28;20489;-38
2023/02/04 08:03:12;;;;;;;6.22;4.43;;;2.20;99.90;;;;;;5052244;28;20032;-38
2023/02/04 08:05:38;;;;;;;7.10;4.10;;;2.20;99.90;;;;;;5051732;28;20031;-38
2023/02/04 08:08:03;;;;;;;6.78;4.20;;;2.30;99.90;;;;;;5052139;28;20063;-38
2023/02/04 08:10:29;;;;;;;6.47;3.72;;;2.30;99.90;;;;;;5052355;28;20025;-38
2023/02/04 08:12:54;;;;;;;7.13;3.75;;;2.40;99.90;;;;;;5052302;28;20025;-38
2023/02/04 08:15:20;;;;;;;8.80;3.28;;;2.40;99.90;;;;;;5051643;28;20535;-38
2023/02/04 08:17:45;;;;;;;8.93;3.75;;;2.50;99.90;;;;;;5052416;28;20013;-38
2023/02/04 08:20:11;;;;;;;5.93;3.05;;;2.50;99.90;;;;;;5052260;28;20025;-38
2023/02/04 08:22:37;;;;;;;3.50;2.72;;;2.60;99.90;;;;;;5052005;28;20021;-38
2023/02/04 08:25:04;;;;;;;6.28;4.53;;;2.60;99.90;;;;;;5051615;28;20696;-38
2023/02/04 08:27:30;;;;;;;7.65;3.40;;;2.60;99.90;;;;;;5051672;28;20017;-38
2023/02/04 08:29:55;;;;;;;5.35;3.38;;;2.60;99.90;;;;;;5051775;28;20064;-38
2023/02/04 08:32:21;;;;;;;5.65;3.50;;;2.60;99.90;;;;;;5050445;28;20501;-38
2023/02/04 08:34:47;;;;;;;5.55;3.22;;;2.60;99.90;;;;;;5051110;28;20440;-38
2023/02/04 08:37:13;;;;;;;7.28;3.72;;;2.60;99.90;;;;;;5052048;28;20029;-38
2023/02/04 08:39:43;;;;;;;6.00;3.20;;;2.60;99.90;;;;;;5051791;28;20044;-38
2023/02/04 08:42:08;;;;;;;5.63;3.53;;;2.70;99.90;;;;;;5051669;28;20394;-38
2023/02/04 08:44:34;;;;;;;7.10;3.70;;;2.70;99.90;;;;;;5049863;28;20032;-38
2023/02/04 08:46:59;;;;;;;4.72;2.67;;;2.80;99.90;;;;;;5051453;28;20037;-38
2023/02/04 08:49:25;;;;;;;5.40;3.08;;;2.80;99.90;;;;;;5051404;28;20459;-38
2023/02/04 08:51:50;;;;;;;5.60;3.17;;;2.90;99.90;;;;;;5051302;28;20037;-38
2023/02/04 08:54:16;;;;;;;5.53;3.20;;;2.90;99.90;;;;;;5051472;28;20064;-38
2023/02/04 08:56:42;;;;;;;7.00;3.33;;;2.90;99.90;;;;;;5050853;28;20029;-38
2023/02/04 08:59:07;;;;;;;6.35;3.47;;;2.80;99.90;;;;;;5049990;28;20024;-38
2023/02/04 09:01:33;;;;;;;6.07;3.30;;;2.90;99.90;;;;;;5051057;28;20509;-38
2023/02/04 09:03:58;;;;;;;8.38;3.70;;;2.80;99.90;;;;;;5050974;28;20032;-38
2023/02/04 09:06:24;;;;;;;9.77;3.85;;;2.80;99.90;;;;;;5050498;28;20025;-38
2023/02/04 09:08:49;;;;;;;7.03;3.80;;;2.80;99.90;;;;;;5051360;28;20025;-38
2023/02/04 09:11:15;;;;;;;5.20;3.53;;;2.80;99.90;;;;;;5051241;28;20029;-38
2023/02/04 09:13:40;;;;;;;6.32;3.30;;;2.90;99.90;;;;;;5051051;28;20036;-38
2023/02/04 09:16:06;;;;;;;7.30;3.25;;;2.90;99.90;;;;;;5050693;28;20032;-38
2023/02/04 09:18:31;;;;;;;5.97;4.00;;;2.90;99.90;;;;;;5049274;28;20059;-38
2023/02/04 09:20:58;;;;;;;5.50;3.15;;;3.00;99.90;;;;;;5050696;28;20021;-38
2023/02/04 09:23:24;;;;;;;7.10;3.50;;;3.00;99.90;;;;;;5050856;28;20025;-38
2023/02/04 09:25:50;;;;;;;3.65;2.42;;;3.10;99.90;;;;;;5050377;28;20024;-38
2023/02/04 09:28:16;;;;;;;4.03;2.75;;;3.10;99.90;;;;;;5051182;28;20029;-38
2023/02/04 09:30:43;;;;;;;5.32;3.03;;;3.10;99.90;;;;;;5051089;28;20411;-38
2023/02/04 09:33:10;;;;;;;9.23;2.88;;;3.20;99.90;;;;;;5050736;28;20025;-38
2023/02/04 09:35:36;;;;;;;8.50;2.60;;;3.20;99.90;;;;;;5049774;28;20039;-38
2023/02/04 09:38:02;;;;;;;3.83;2.00;;;3.20;99.90;;;;;;5050758;28;20059;-38
2023/02/04 09:40:33;;;;;;;3.83;1.73;;;3.20;99.90;;;;;;5050435;28;20475;-38
2023/02/04 09:43:00;;;;;;;5.78;1.98;;;3.30;99.90;;;;;;5050339;28;20096;-38
2023/02/04 09:45:28;;;;;;;6.05;2.80;;;3.40;99.90;;;;;;5049937;28;20044;-38
2023/02/04 09:47:56;;;;;;;7.65;2.50;;;3.40;99.90;;;;;;5049031;28;20108;-38
2023/02/04 09:50:25;;;;;;;9.25;2.78;;;3.50;99.90;;;;;;5050232;28;20058;-38
2023/02/04 09:52:52;;;;;;;3.58;2.13;;;3.70;99.90;;;;;;5050167;28;20470;-38
2023/02/04 09:55:21;;;;;;;2.47;1.58;;;3.80;99.90;;;;;;5048187;28;20526;-38
2023/02/04 09:57:47;;;;;;;5.80;1.45;;;3.90;99.90;;;;;;5050650;28;20172;-38
2023/02/04 10:00:22;;;;;;;6.60;1.90;;;4.10;99.90;;;;;;5050305;28;20024;-38
2023/02/04 10:02:48;;;;;;;3.50;1.92;;;4.30;99.90;;;;;;5050354;28;20033;-38
2023/02/04 10:05:28;;;;;;;3.40;1.70;;;4.50;99.90;;;;;;5048258;28;20465;-38
2023/02/04 10:07:53;;;;;;;4.07;1.80;;;4.80;99.90;;;;;;5050015;28;20040;-38
2023/02/04 10:10:24;;;;;;;2.42;1.83;;;5.10;99.90;;;;;;5050463;28;20322;-38
2023/02/04 10:12:52;;;;;;;2.78;1.30;;;5.40;99.90;;;;;;5050127;28;20167;-38
2023/02/04 10:15:19;;;;;;;3.08;1.30;;;5.50;99.90;;;;;;5049223;28;20029;-38
2023/02/04 10:17:46;;;;;;;3.58;1.38;;;6.10;99.90;;;;;;5049777;28;20021;-39
2023/02/04 10:20:17;;;;;;;3.28;1.38;;;7.20;99.90;;;;;;5050162;28;20126;-39
2023/02/04 10:22:44;;;;;;;3.08;1.25;;;8.90;99.90;;;;;;5049719;28;20021;-38
2023/02/04 10:25:19;;;;;;;2.13;1.08;;;10.60;99.90;;;;;;5047888;28;20021;-39
2023/02/04 10:27:54;;;;;;;1.73;0.90;;;12.00;95.50;;;;;;5049698;28;20029;-39
2023/02/04 10:30:26;;;;;;;1.70;1.00;;;13.90;91.50;;;;;;5049027;28;20630;-39
2023/02/04 10:32:53;;;;;;;2.33;0.80;;;15.70;86.20;;;;;;5049359;28;20470;-38
2023/02/04 10:35:20;;;;;;;2.47;1.00;;;17.40;74.50;;;;;;5049314;28;20040;-39
2023/02/04 10:37:46;;;;;;;3.00;1.20;;;18.60;66.70;;;;;;5049877;28;20076;-39
2023/02/04 10:40:32;;;;;;;1.83;0.70;;;18.80;63.60;;;;;;5049673;28;20100;-39
2023/02/04 10:42:58;;;;;;;2.00;0.75;;;18.90;61.30;;;;;;5049431;28;20032;-39
2023/02/04 10:45:26;;;;;;;2.25;0.90;;;19.40;57.20;;;;;;5049011;28;20083;-39
2023/02/04 10:47:53;;;;;;;1.35;0.98;;;19.60;58.50;;;;;;5049432;28;20032;-39
2023/02/04 10:50:24;;;;;;;3.30;1.00;;;19.90;58.80;;;;;;5049349;28;20028;-39
2023/02/04 10:52:54;;;;;;;3.35;1.27;;;20.10;57.20;;;;;;5049602;28;20222;-39
2023/02/04 10:55:22;;;;;;;2.47;1.07;;;20.20;56.60;;;;;;5048934;28;20322;-39
2023/02/04 10:57:50;;;;;;;3.00;1.17;;;20.80;56.10;;;;;;5049286;28;20033;-39
2023/02/04 11:00:21;;;;;;;1.13;0.85;;;21.30;53.70;;;;;;5049332;28;20017;-39
2023/02/04 11:02:56;;;;;;;2.25;0.90;;;21.40;54.70;;;;;;5031548;28;20120;-39
2023/02/04 11:05:27;;;;;;;4.40;0.80;;;21.40;53.10;;;;;;5048873;28;20425;-39
2023/02/04 11:07:53;;;;;;;1.42;1.13;;;21.20;54.90;;;;;;5049491;28;20467;-39
2023/02/04 11:10:27;;;;;;;2.25;1.23;;;20.90;53.60;;;;;;5049609;28;20057;-39
2023/02/04 11:12:54;;;;;;;1.98;1.25;;;21.10;53.50;;;;;;5047884;28;20107;-39
2023/02/04 11:15:45;;;;;;;2.03;1.20;;;21.60;50.00;;;;;;5048500;28;20415;-39
2023/02/04 11:18:18;;;;;;;3.22;1.10;;;21.90;51.80;;;;;;5031424;28;20018;-39
2023/02/04 11:20:44;;;;;;;2.42;0.93;;;22.50;50.50;;;;;;5049167;28;20089;-39
2023/02/04 11:23:21;;;;;;;2.30;1.00;;;22.30;49.50;;;;;;5049311;28;20025;-39
2023/02/04 11:25:47;;;;;;;2.67;0.90;;;20.50;50.40;;;;;;5048432;28;20522;-39
2023/02/04 11:28:24;;;;;;;1.75;0.90;;;20.30;53.00;;;;;;5049075;28;20040;-39
2023/02/04 11:31:11;;;;;;;3.95;1.23;;;20.40;54.00;;;;;;5049278;28;20059;-39
2023/02/04 11:33:40;;;;;;;1.52;0.90;;;19.70;52.30;;;;;;5049023;28;20091;-39
2023/02/04 11:36:10;;;;;;;3.88;1.20;;;20.10;53.00;;;;;;5047389;28;20104;-39
2023/02/04 11:38:35;;;;;;;2.08;0.90;;;19.70;52.70;;;;;;5047319;28;20083;-39
2023/02/04 11:41:02;;;;;;;2.90;1.50;;;19.80;53.40;;;;;;5049307;28;20425;-39
2023/02/04 11:43:31;;;;;;;3.20;1.20;;;20.00;55.20;;;;;;5051381;28;20556;-39
2023/02/04 11:46:03;;;;;;;1.70;1.00;;;20.00;53.90;;;;;;5052011;28;20529;-39
2023/02/04 11:48:30;;;;;;;2.28;1.00;;;20.50;51.50;;;;;;5052740;28;20037;-39
2023/02/04 11:51:01;;;;;;;1.45;0.82;;;20.20;50.00;;;;;;5052420;28;20045;-39
2023/02/04 11:53:31;;;;;;;1.95;1.10;;;20.40;50.80;;;;;;5052453;28;20025;-39
2023/02/04 11:55:57;;;;;;;2.33;1.20;;;20.70;51.20;;;;;;5051841;28;20367;-39
2023/02/04 11:58:24;;;;;;;2.78;1.10;;;21.20;50.20;;;;;;5052664;28;20078;-38
2023/02/04 12:00:51;;;;;;;5.22;1.63;;;20.50;49.40;;;;;;5052552;28;20112;-38
2023/02/04 12:03:26;;;;;;;3.80;1.40;;;20.10;49.80;;;;;;5051185;28;20017;-38
2023/02/04 12:05:53;;;;;;;1.48;1.05;;;19.50;49.90;;;;;;5050688;28;20286;-38
2023/02/04 12:08:22;;;;;;;3.45;1.33;;;19.00;52.60;;;;;;5052527;28;20028;-38
2023/02/04 12:11:24;;;;;;;1.77;0.90;;;18.40;52.80;;;;;;5052864;28;20044;-38
2023/02/04 12:13:53;;;;;;;1.40;0.85;;;19.00;51.90;;;;;;5050418;28;20045;-38
2023/02/04 12:16:18;;;;;;;1.45;0.90;;;19.50;51.20;;;;;;5052049;28;20029;-38
2023/02/04 12:18:44;;;;;;;4.30;1.15;;;19.00;51.60;;;;;;5052083;28;20027;-39
2023/02/04 12:21:10;;;;;;;2.20;1.20;;;19.00;52.80;;;;;;5051926;28;20024;-39
2023/02/04 12:23:35;;;;;;;1.42;1.02;;;18.70;51.10;;;;;;5051979;28;20096;-39
2023/02/04 12:26:01;;;;;;;1.42;0.90;;;18.50;52.00;;;;;;5050368;28;20483;-39
2023/02/04 12:28:27;;;;;;;2.22;1.05;;;17.20;52.40;;;;;;5051892;28;20029;-39
2023/02/04 12:30:53;;;;;;;1.20;0.85;;;15.60;55.50;;;;;;5051863;28;20474;-38
2023/02/04 12:33:21;;;;;;;2.63;1.08;;;14.90;58.70;;;;;;5050619;28;20032;-38
2023/02/04 12:35:47;;;;;;;3.38;1.40;;;14.50;57.80;;;;;;5051469;28;20048;-39
2023/02/04 12:38:12;;;;;;;2.10;0.95;;;13.70;59.40;;;;;;5051795;28;20498;-37
2023/02/04 12:40:38;;;;;;;2.15;1.67;;;13.30;62.60;;;;;;5051705;28;20036;-38
2023/02/04 12:43:04;;;;;;;1.77;1.25;;;13.70;63.20;;;;;;5051668;28;20149;-38
2023/02/04 12:45:30;;;;;;;2.10;1.15;;;14.60;63.70;;;;;;5051079;28;20029;-38
2023/02/04 12:47:55;;;;;;;1.42;1.08;;;14.50;61.50;;;;;;5051548;28;20032;-38
2023/02/04 12:50:21;;;;;;;1.73;0.93;;;14.50;60.60;;;;;;5051426;28;20027;-38
2023/02/04 12:52:53;;;;;;;1.60;0.73;;;14.10;61.00;;;;;;5050527;28;20025;-38
2023/02/04 12:55:19;;;;;;;2.72;1.80;;;14.00;59.70;;;;;;5049421;28;20127;-38